sensor_id;sensor_type;location;lat;lon;timestamp;P1;durP1;ratioP1;P2;durP2;ratioP2
75459;SDS011;64039;53.060;9.342;2024-02-15T00:01:55;12.73;;;9.63;;
75459;SDS011;64039;53.060;9.342;2024-02-15T00:04:20;13.13;;;8.73;;
75459;SDS011;64039;53.060;9.342;2024-02-15T00:06:46;13.48;;;8.98;;
75459;SDS011;64039;53.060;9.342;2024-02-15T00:09:11;15.60;;;9.80;;
75459;SDS011;64039;53.060;9.342;2024-02-15T00:11:37;14.40;;;9.73;;
75459;SDS011;64039;53.060;9.342;2024-02-15T00:14:04;15.48;;;9.70;;
75459;SDS011;64039;53.060;9.342;2024-02-15T00:16:30;16.20;;;10.07;;
75459;SDS011;64039;53.060;9.342;2024-02-15T00:18:55;14.48;;;9.98;;
75459;SDS011;64039;53.060;9.342;2024-02-15T00:21:21;12.90;;;9.50;;
75459;SDS011;64039;53.060;9.342;2024-02-15T00:23:48;17.13;;;11.20;;
75459;SDS011;64039;53.060;9.342;2024-02-15T00:26:14;14.30;;;10.15;;
75459;SDS011;64039;53.060;9.342;2024-02-15T00:28:42;15.60;;;10.80;;
75459;SDS011;64039;53.060;9.342;2024-02-15T00:31:08;16.00;;;11.48;;
75459;SDS011;64039;53.060;9.342;2024-02-15T00:33:33;17.83;;;11.30;;
75459;SDS011;64039;53.060;9.342;2024-02-15T00:36:00;19.05;;;10.93;;
75459;SDS011;64039;53.060;9.342;2024-02-15T00:38:26;14.93;;;10.68;;
75459;SDS011;64039;53.060;9.342;2024-02-15T00:40:52;14.38;;;10.30;;
75459;SDS011;64039;53.060;9.342;2024-02-15T00:43:18;18.20;;;11.73;;
75459;SDS011;64039;53.060;9.342;2024-02-15T00:45:44;14.95;;;10.75;;
75459;SDS011;64039;53.060;9.342;2024-02-15T00:48:10;16.00;;;11.07;;
75459;SDS011;64039;53.060;9.342;2024-02-15T00:50:36;16.10;;;11.23;;
75459;SDS011;64039;53.060;9.342;2024-02-15T00:53:01;16.50;;;10.88;;
75459;SDS011;64039;53.060;9.342;2024-02-15T00:55:27;17.88;;;10.07;;
75459;SDS011;64039;53.060;9.342;2024-02-15T00:57:52;15.30;;;10.48;;
75459;SDS011;64039;53.060;9.342;2024-02-15T01:00:17;14.15;;;10.13;;
75459;SDS011;64039;53.060;9.342;2024-02-15T01:02:43;15.20;;;9.73;;
75459;SDS011;64039;53.060;9.342;2024-02-15T01:05:09;15.25;;;10.70;;
75459;SDS011;64039;53.060;9.342;2024-02-15T01:07:35;14.98;;;10.38;;
75459;SDS011;64039;53.060;9.342;2024-02-15T01:10:00;17.63;;;10.27;;
75459;SDS011;64039;53.060;9.342;2024-02-15T01:12:26;14.38;;;9.93;;
75459;SDS011;64039;53.060;9.342;2024-02-15T01:14:51;15.35;;;10.57;;
75459;SDS011;64039;53.060;9.342;2024-02-15T01:17:17;16.23;;;10.73;;
75459;SDS011;64039;53.060;9.342;2024-02-15T01:19:42;15.57;;;10.88;;
75459;SDS011;64039;53.060;9.342;2024-02-15T01:22:07;15.48;;;10.95;;
75459;SDS011;64039;53.060;9.342;2024-02-15T01:24:34;14.50;;;10.48;;
75459;SDS011;64039;53.060;9.342;2024-02-15T01:26:59;15.77;;;10.90;;
75459;SDS011;64039;53.060;9.342;2024-02-15T01:29:25;18.58;;;13.02;;
75459;SDS011;64039;53.060;9.342;2024-02-15T01:31:51;17.17;;;11.38;;
75459;SDS011;64039;53.060;9.342;2024-02-15T01:34:17;17.33;;;11.95;;
75459;SDS011;64039;53.060;9.342;2024-02-15T01:36:42;17.75;;;11.98;;
75459;SDS011;64039;53.060;9.342;2024-02-15T01:39:08;15.80;;;11.45;;
75459;SDS011;64039;53.060;9.342;2024-02-15T01:41:33;16.08;;;11.20;;
75459;SDS011;64039;53.060;9.342;2024-02-15T01:43:59;18.08;;;12.02;;
75459;SDS011;64039;53.060;9.342;2024-02-15T01:46:25;18.20;;;11.95;;
75459;SDS011;64039;53.060;9.342;2024-02-15T01:48:50;18.63;;;12.02;;
75459;SDS011;64039;53.060;9.342;2024-02-15T01:51:16;18.20;;;12.65;;
75459;SDS011;64039;53.060;9.342;2024-02-15T01:53:43;19.85;;;12.82;;
75459;SDS011;64039;53.060;9.342;2024-02-15T01:56:10;17.25;;;12.25;;
75459;SDS011;64039;53.060;9.342;2024-02-15T01:58:39;17.40;;;12.32;;
75459;SDS011;64039;53.060;9.342;2024-02-15T02:01:06;17.60;;;11.65;;
75459;SDS011;64039;53.060;9.342;2024-02-15T02:03:32;18.48;;;12.50;;
75459;SDS011;64039;53.060;9.342;2024-02-15T02:05:57;17.42;;;11.93;;
75459;SDS011;64039;53.060;9.342;2024-02-15T02:08:24;16.73;;;11.80;;
75459;SDS011;64039;53.060;9.342;2024-02-15T02:10:50;16.80;;;11.45;;
75459;SDS011;64039;53.060;9.342;2024-02-15T02:13:16;17.05;;;12.20;;
75459;SDS011;64039;53.060;9.342;2024-02-15T02:15:42;18.88;;;12.38;;
75459;SDS011;64039;53.060;9.342;2024-02-15T02:18:07;17.02;;;11.93;;
75459;SDS011;64039;53.060;9.342;2024-02-15T02:20:35;16.50;;;11.85;;
75459;SDS011;64039;53.060;9.342;2024-02-15T02:23:13;17.23;;;11.50;;
75459;SDS011;64039;53.060;9.342;2024-02-15T02:25:39;18.55;;;11.60;;
75459;SDS011;64039;53.060;9.342;2024-02-15T02:28:07;16.33;;;11.25;;
75459;SDS011;64039;53.060;9.342;2024-02-15T02:30:33;16.63;;;11.52;;
75459;SDS011;64039;53.060;9.342;2024-02-15T02:33:00;16.48;;;11.68;;
75459;SDS011;64039;53.060;9.342;2024-02-15T02:35:26;17.10;;;11.13;;
75459;SDS011;64039;53.060;9.342;2024-02-15T02:37:53;15.02;;;10.77;;
75459;SDS011;64039;53.060;9.342;2024-02-15T02:40:18;17.83;;;11.23;;
75459;SDS011;64039;53.060;9.342;2024-02-15T02:42:53;16.25;;;10.98;;
75459;SDS011;64039;53.060;9.342;2024-02-15T02:45:26;16.88;;;11.65;;
75459;SDS011;64039;53.060;9.342;2024-02-15T02:47:52;15.52;;;10.98;;
75459;SDS011;64039;53.060;9.342;2024-02-15T02:50:18;14.73;;;10.85;;
75459;SDS011;64039;53.060;9.342;2024-02-15T02:52:45;16.70;;;11.25;;
75459;SDS011;64039;53.060;9.342;2024-02-15T02:55:13;14.63;;;10.70;;
75459;SDS011;64039;53.060;9.342;2024-02-15T02:57:39;15.35;;;11.50;;
75459;SDS011;64039;53.060;9.342;2024-02-15T03:00:07;16.10;;;10.93;;
75459;SDS011;64039;53.060;9.342;2024-02-15T03:02:38;15.05;;;10.55;;
75459;SDS011;64039;53.060;9.342;2024-02-15T03:05:04;14.52;;;10.30;;
75459;SDS011;64039;53.060;9.342;2024-02-15T03:07:34;14.95;;;10.50;;
75459;SDS011;64039;53.060;9.342;2024-02-15T03:10:01;13.88;;;10.27;;
75459;SDS011;64039;53.060;9.342;2024-02-15T03:12:29;16.50;;;10.95;;
75459;SDS011;64039;53.060;9.342;2024-02-15T03:14:55;13.30;;;9.93;;
75459;SDS011;64039;53.060;9.342;2024-02-15T03:17:20;15.27;;;10.90;;
75459;SDS011;64039;53.060;9.342;2024-02-15T03:19:46;17.05;;;11.15;;
75459;SDS011;64039;53.060;9.342;2024-02-15T03:22:14;16.42;;;11.57;;
75459;SDS011;64039;53.060;9.342;2024-02-15T03:24:40;17.80;;;11.60;;
75459;SDS011;64039;53.060;9.342;2024-02-15T03:27:06;16.08;;;10.98;;
75459;SDS011;64039;53.060;9.342;2024-02-15T03:29:31;17.05;;;10.95;;
75459;SDS011;64039;53.060;9.342;2024-02-15T03:31:59;16.25;;;10.35;;
75459;SDS011;64039;53.060;9.342;2024-02-15T03:34:24;15.85;;;10.32;;
75459;SDS011;64039;53.060;9.342;2024-02-15T03:36:50;16.52;;;10.63;;
75459;SDS011;64039;53.060;9.342;2024-02-15T03:39:19;16.38;;;10.90;;
75459;SDS011;64039;53.060;9.342;2024-02-15T03:41:45;16.38;;;10.77;;
75459;SDS011;64039;53.060;9.342;2024-02-15T03:44:14;15.23;;;10.77;;
75459;SDS011;64039;53.060;9.342;2024-02-15T03:46:39;15.55;;;10.98;;
75459;SDS011;64039;53.060;9.342;2024-02-15T03:49:05;17.13;;;11.10;;
75459;SDS011;64039;53.060;9.342;2024-02-15T03:51:33;14.57;;;10.63;;
75459;SDS011;64039;53.060;9.342;2024-02-15T03:53:59;19.27;;;11.60;;
75459;SDS011;64039;53.060;9.342;2024-02-15T03:56:24;17.95;;;11.27;;
75459;SDS011;64039;53.060;9.342;2024-02-15T03:58:50;20.13;;;11.77;;
75459;SDS011;64039;53.060;9.342;2024-02-15T04:01:16;19.27;;;11.98;;
75459;SDS011;64039;53.060;9.342;2024-02-15T04:03:42;16.85;;;10.35;;
75459;SDS011;64039;53.060;9.342;2024-02-15T04:06:07;15.75;;;11.15;;
75459;SDS011;64039;53.060;9.342;2024-02-15T04:08:35;18.42;;;11.23;;
75459;SDS011;64039;53.060;9.342;2024-02-15T04:11:04;17.02;;;11.15;;
75459;SDS011;64039;53.060;9.342;2024-02-15T04:13:31;18.15;;;11.75;;
75459;SDS011;64039;53.060;9.342;2024-02-15T04:15:57;17.30;;;11.63;;
75459;SDS011;64039;53.060;9.342;2024-02-15T04:18:23;20.73;;;12.88;;
75459;SDS011;64039;53.060;9.342;2024-02-15T04:20:48;16.83;;;11.27;;
75459;SDS011;64039;53.060;9.342;2024-02-15T04:23:14;19.55;;;12.00;;
75459;SDS011;64039;53.060;9.342;2024-02-15T04:25:39;20.73;;;11.95;;
75459;SDS011;64039;53.060;9.342;2024-02-15T04:28:06;20.45;;;12.52;;
75459;SDS011;64039;53.060;9.342;2024-02-15T04:30:33;18.10;;;12.00;;
75459;SDS011;64039;53.060;9.342;2024-02-15T04:33:00;18.98;;;11.68;;
75459;SDS011;64039;53.060;9.342;2024-02-15T04:35:25;17.35;;;11.45;;
75459;SDS011;64039;53.060;9.342;2024-02-15T04:37:52;22.63;;;12.40;;
75459;SDS011;64039;53.060;9.342;2024-02-15T04:40:18;18.23;;;11.77;;
75459;SDS011;64039;53.060;9.342;2024-02-15T04:42:44;17.45;;;12.05;;
75459;SDS011;64039;53.060;9.342;2024-02-15T04:45:12;20.77;;;12.48;;
75459;SDS011;64039;53.060;9.342;2024-02-15T04:47:40;18.48;;;12.32;;
75459;SDS011;64039;53.060;9.342;2024-02-15T04:50:06;17.55;;;11.85;;
75459;SDS011;64039;53.060;9.342;2024-02-15T04:52:32;18.77;;;11.80;;
75459;SDS011;64039;53.060;9.342;2024-02-15T04:54:58;20.02;;;12.27;;
75459;SDS011;64039;53.060;9.342;2024-02-15T04:57:26;17.52;;;11.40;;
75459;SDS011;64039;53.060;9.342;2024-02-15T04:59:53;18.73;;;11.23;;
75459;SDS011;64039;53.060;9.342;2024-02-15T05:02:19;19.25;;;11.88;;
75459;SDS011;64039;53.060;9.342;2024-02-15T05:04:45;16.48;;;11.32;;
75459;SDS011;64039;53.060;9.342;2024-02-15T05:07:11;21.83;;;13.38;;
75459;SDS011;64039;53.060;9.342;2024-02-15T05:09:36;19.92;;;11.95;;
75459;SDS011;64039;53.060;9.342;2024-02-15T05:12:02;18.33;;;11.45;;
75459;SDS011;64039;53.060;9.342;2024-02-15T05:14:30;18.70;;;11.25;;
75459;SDS011;64039;53.060;9.342;2024-02-15T05:16:56;15.95;;;10.63;;
75459;SDS011;64039;53.060;9.342;2024-02-15T05:19:21;17.15;;;10.82;;
75459;SDS011;64039;53.060;9.342;2024-02-15T05:21:47;18.42;;;11.93;;
75459;SDS011;64039;53.060;9.342;2024-02-15T05:24:13;18.42;;;11.57;;
75459;SDS011;64039;53.060;9.342;2024-02-15T05:26:48;16.25;;;10.90;;
75459;SDS011;64039;53.060;9.342;2024-02-15T05:29:15;17.35;;;11.05;;
75459;SDS011;64039;53.060;9.342;2024-02-15T05:31:41;18.38;;;10.93;;
75459;SDS011;64039;53.060;9.342;2024-02-15T05:34:07;18.42;;;10.68;;
75459;SDS011;64039;53.060;9.342;2024-02-15T05:36:33;18.15;;;10.70;;
75459;SDS011;64039;53.060;9.342;2024-02-15T05:38:59;18.23;;;11.13;;
75459;SDS011;64039;53.060;9.342;2024-02-15T05:41:25;18.25;;;11.10;;
75459;SDS011;64039;53.060;9.342;2024-02-15T05:43:50;16.98;;;10.63;;
75459;SDS011;64039;53.060;9.342;2024-02-15T05:46:18;19.02;;;10.77;;
75459;SDS011;64039;53.060;9.342;2024-02-15T05:48:46;14.57;;;10.00;;
75459;SDS011;64039;53.060;9.342;2024-02-15T05:51:11;18.40;;;10.80;;
75459;SDS011;64039;53.060;9.342;2024-02-15T05:53:37;16.00;;;10.20;;
75459;SDS011;64039;53.060;9.342;2024-02-15T05:56:03;15.00;;;10.10;;
75459;SDS011;64039;53.060;9.342;2024-02-15T05:58:32;17.55;;;9.85;;
75459;SDS011;64039;53.060;9.342;2024-02-15T06:01:01;16.23;;;9.75;;
75459;SDS011;64039;53.060;9.342;2024-02-15T06:03:45;15.70;;;9.52;;
75459;SDS011;64039;53.060;9.342;2024-02-15T06:06:13;14.35;;;9.02;;
75459;SDS011;64039;53.060;9.342;2024-02-15T06:08:39;16.40;;;10.07;;
75459;SDS011;64039;53.060;9.342;2024-02-15T06:11:04;14.55;;;9.02;;
75459;SDS011;64039;53.060;9.342;2024-02-15T06:13:34;13.25;;;8.55;;
75459;SDS011;64039;53.060;9.342;2024-02-15T06:16:00;13.57;;;9.23;;
75459;SDS011;64039;53.060;9.342;2024-02-15T06:18:27;15.07;;;9.25;;
75459;SDS011;64039;53.060;9.342;2024-02-15T06:20:54;13.93;;;8.63;;
75459;SDS011;64039;53.060;9.342;2024-02-15T06:23:24;12.68;;;8.30;;
75459;SDS011;64039;53.060;9.342;2024-02-15T06:25:53;13.45;;;8.20;;
75459;SDS011;64039;53.060;9.342;2024-02-15T06:28:23;12.20;;;8.80;;
75459;SDS011;64039;53.060;9.342;2024-02-15T06:31:07;10.77;;;7.03;;
75459;SDS011;64039;53.060;9.342;2024-02-15T06:33:52;13.30;;;8.15;;
75459;SDS011;64039;53.060;9.342;2024-02-15T06:36:55;12.30;;;7.18;;
75459;SDS011;64039;53.060;9.342;2024-02-15T06:39:40;11.43;;;7.45;;
75459;SDS011;64039;53.060;9.342;2024-02-15T06:42:12;11.60;;;7.50;;
75459;SDS011;64039;53.060;9.342;2024-02-15T06:44:43;11.65;;;7.32;;
75459;SDS011;64039;53.060;9.342;2024-02-15T06:47:09;11.80;;;7.55;;
75459;SDS011;64039;53.060;9.342;2024-02-15T06:49:36;11.45;;;7.68;;
75459;SDS011;64039;53.060;9.342;2024-02-15T06:52:05;11.40;;;7.57;;
75459;SDS011;64039;53.060;9.342;2024-02-15T06:54:32;13.98;;;8.25;;
75459;SDS011;64039;53.060;9.342;2024-02-15T06:56:59;11.63;;;7.72;;
75459;SDS011;64039;53.060;9.342;2024-02-15T06:59:24;11.30;;;7.80;;
75459;SDS011;64039;53.060;9.342;2024-02-15T07:01:50;12.45;;;8.13;;
75459;SDS011;64039;53.060;9.342;2024-02-15T07:04:17;12.50;;;8.38;;
75459;SDS011;64039;53.060;9.342;2024-02-15T07:06:45;14.25;;;8.73;;
75459;SDS011;64039;53.060;9.342;2024-02-15T07:09:13;11.43;;;7.95;;
75459;SDS011;64039;53.060;9.342;2024-02-15T07:11:44;11.17;;;7.80;;
75459;SDS011;64039;53.060;9.342;2024-02-15T07:14:11;12.13;;;8.10;;
75459;SDS011;64039;53.060;9.342;2024-02-15T07:16:37;13.38;;;8.55;;
75459;SDS011;64039;53.060;9.342;2024-02-15T07:19:03;12.52;;;9.27;;
75459;SDS011;64039;53.060;9.342;2024-02-15T07:21:29;12.50;;;8.95;;
75459;SDS011;64039;53.060;9.342;2024-02-15T07:23:55;15.00;;;9.32;;
75459;SDS011;64039;53.060;9.342;2024-02-15T07:26:21;13.93;;;9.38;;
75459;SDS011;64039;53.060;9.342;2024-02-15T07:28:50;14.93;;;8.85;;
75459;SDS011;64039;53.060;9.342;2024-02-15T07:31:22;15.95;;;8.80;;
75459;SDS011;64039;53.060;9.342;2024-02-15T07:33:48;13.27;;;9.30;;
75459;SDS011;64039;53.060;9.342;2024-02-15T07:36:22;13.88;;;10.00;;
75459;SDS011;64039;53.060;9.342;2024-02-15T07:38:49;13.93;;;9.43;;
75459;SDS011;64039;53.060;9.342;2024-02-15T07:41:16;16.83;;;10.65;;
75459;SDS011;64039;53.060;9.342;2024-02-15T07:43:43;14.60;;;9.77;;
75459;SDS011;64039;53.060;9.342;2024-02-15T07:46:12;16.92;;;10.73;;
75459;SDS011;64039;53.060;9.342;2024-02-15T07:48:39;18.85;;;10.60;;
75459;SDS011;64039;53.060;9.342;2024-02-15T07:51:09;16.08;;;10.52;;
75459;SDS011;64039;53.060;9.342;2024-02-15T07:53:34;16.05;;;10.63;;
75459;SDS011;64039;53.060;9.342;2024-02-15T07:56:00;14.07;;;9.25;;
75459;SDS011;64039;53.060;9.342;2024-02-15T07:58:25;18.08;;;10.45;;
75459;SDS011;64039;53.060;9.342;2024-02-15T08:00:51;15.73;;;10.38;;
75459;SDS011;64039;53.060;9.342;2024-02-15T08:03:16;17.15;;;11.38;;
75459;SDS011;64039;53.060;9.342;2024-02-15T08:05:42;18.52;;;10.95;;
75459;SDS011;64039;53.060;9.342;2024-02-15T08:08:07;18.20;;;12.00;;
75459;SDS011;64039;53.060;9.342;2024-02-15T08:10:32;23.15;;;12.85;;
75459;SDS011;64039;53.060;9.342;2024-02-15T08:12:59;20.92;;;13.15;;
75459;SDS011;64039;53.060;9.342;2024-02-15T08:15:24;21.90;;;13.45;;
75459;SDS011;64039;53.060;9.342;2024-02-15T08:17:52;20.45;;;13.25;;
75459;SDS011;64039;53.060;9.342;2024-02-15T08:20:20;20.90;;;13.10;;
75459;SDS011;64039;53.060;9.342;2024-02-15T08:22:48;18.48;;;13.48;;
75459;SDS011;64039;53.060;9.342;2024-02-15T08:25:14;17.15;;;12.38;;
75459;SDS011;64039;53.060;9.342;2024-02-15T08:27:41;21.13;;;13.73;;
75459;SDS011;64039;53.060;9.342;2024-02-15T08:30:09;21.17;;;13.77;;
75459;SDS011;64039;53.060;9.342;2024-02-15T08:32:39;22.13;;;13.02;;
75459;SDS011;64039;53.060;9.342;2024-02-15T08:35:07;18.50;;;12.77;;
75459;SDS011;64039;53.060;9.342;2024-02-15T08:37:36;20.40;;;12.93;;
75459;SDS011;64039;53.060;9.342;2024-02-15T08:40:03;21.83;;;14.85;;
75459;SDS011;64039;53.060;9.342;2024-02-15T08:42:37;21.23;;;13.93;;
75459;SDS011;64039;53.060;9.342;2024-02-15T08:45:04;22.92;;;13.52;;
75459;SDS011;64039;53.060;9.342;2024-02-15T08:47:30;23.30;;;14.57;;
75459;SDS011;64039;53.060;9.342;2024-02-15T08:49:55;24.48;;;15.50;;
75459;SDS011;64039;53.060;9.342;2024-02-15T08:52:21;23.20;;;15.43;;
75459;SDS011;64039;53.060;9.342;2024-02-15T08:54:46;28.70;;;16.27;;
75459;SDS011;64039;53.060;9.342;2024-02-15T08:57:12;26.30;;;15.73;;
75459;SDS011;64039;53.060;9.342;2024-02-15T08:59:38;30.23;;;16.98;;
75459;SDS011;64039;53.060;9.342;2024-02-15T09:02:04;28.25;;;17.20;;
75459;SDS011;64039;53.060;9.342;2024-02-15T09:04:30;27.67;;;16.67;;
75459;SDS011;64039;53.060;9.342;2024-02-15T09:06:56;29.55;;;18.08;;
75459;SDS011;64039;53.060;9.342;2024-02-15T09:09:22;27.40;;;17.67;;
75459;SDS011;64039;53.060;9.342;2024-02-15T09:11:47;28.67;;;17.73;;
75459;SDS011;64039;53.060;9.342;2024-02-15T09:14:13;27.15;;;17.48;;
75459;SDS011;64039;53.060;9.342;2024-02-15T09:16:38;28.90;;;17.95;;
75459;SDS011;64039;53.060;9.342;2024-02-15T09:19:04;30.48;;;17.88;;
75459;SDS011;64039;53.060;9.342;2024-02-15T09:21:31;29.23;;;17.67;;
75459;SDS011;64039;53.060;9.342;2024-02-15T09:23:58;34.75;;;17.20;;
75459;SDS011;64039;53.060;9.342;2024-02-15T09:26:24;27.98;;;17.10;;
75459;SDS011;64039;53.060;9.342;2024-02-15T09:28:50;28.63;;;17.77;;
75459;SDS011;64039;53.060;9.342;2024-02-15T09:31:15;29.67;;;18.85;;
75459;SDS011;64039;53.060;9.342;2024-02-15T09:33:41;30.80;;;17.88;;
75459;SDS011;64039;53.060;9.342;2024-02-15T09:36:07;29.75;;;17.98;;
75459;SDS011;64039;53.060;9.342;2024-02-15T09:38:33;26.98;;;18.60;;
75459;SDS011;64039;53.060;9.342;2024-02-15T09:40:58;29.63;;;18.65;;
75459;SDS011;64039;53.060;9.342;2024-02-15T09:43:24;29.83;;;17.90;;
75459;SDS011;64039;53.060;9.342;2024-02-15T09:45:51;29.42;;;17.35;;
75459;SDS011;64039;53.060;9.342;2024-02-15T09:48:18;29.27;;;17.65;;
75459;SDS011;64039;53.060;9.342;2024-02-15T09:50:44;29.77;;;17.85;;
75459;SDS011;64039;53.060;9.342;2024-02-15T09:53:13;28.63;;;17.77;;
75459;SDS011;64039;53.060;9.342;2024-02-15T09:55:40;28.17;;;17.23;;
75459;SDS011;64039;53.060;9.342;2024-02-15T09:58:08;29.73;;;17.27;;
75459;SDS011;64039;53.060;9.342;2024-02-15T10:00:34;33.33;;;16.88;;
75459;SDS011;64039;53.060;9.342;2024-02-15T10:03:00;29.08;;;17.77;;
75459;SDS011;64039;53.060;9.342;2024-02-15T10:05:30;28.38;;;17.33;;
75459;SDS011;64039;53.060;9.342;2024-02-15T10:07:56;28.05;;;16.98;;
75459;SDS011;64039;53.060;9.342;2024-02-15T10:10:22;26.85;;;17.45;;
75459;SDS011;64039;53.060;9.342;2024-02-15T10:12:50;26.95;;;16.65;;
75459;SDS011;64039;53.060;9.342;2024-02-15T10:18:10;27.00;;;16.17;;
75459;SDS011;64039;53.060;9.342;2024-02-15T10:20:37;33.92;;;16.55;;
75459;SDS011;64039;53.060;9.342;2024-02-15T10:25:33;24.73;;;15.52;;
75459;SDS011;64039;53.060;9.342;2024-02-15T10:28:04;24.85;;;15.73;;
75459;SDS011;64039;53.060;9.342;2024-02-15T10:30:36;42.03;;;16.55;;
75459;SDS011;64039;53.060;9.342;2024-02-15T10:33:03;25.73;;;15.13;;
75459;SDS011;64039;53.060;9.342;2024-02-15T10:35:29;23.88;;;14.25;;
75459;SDS011;64039;53.060;9.342;2024-02-15T10:40:34;23.38;;;13.07;;
75459;SDS011;64039;53.060;9.342;2024-02-15T10:43:02;20.42;;;13.02;;
75459;SDS011;64039;53.060;9.342;2024-02-15T10:45:30;20.02;;;12.07;;
75459;SDS011;64039;53.060;9.342;2024-02-15T10:47:56;20.73;;;12.00;;
75459;SDS011;64039;53.060;9.342;2024-02-15T10:50:22;20.25;;;10.73;;
75459;SDS011;64039;53.060;9.342;2024-02-15T10:52:54;17.23;;;10.20;;
75459;SDS011;64039;53.060;9.342;2024-02-15T10:55:40;16.08;;;10.70;;
75459;SDS011;64039;53.060;9.342;2024-02-15T10:58:15;21.83;;;9.85;;
75459;SDS011;64039;53.060;9.342;2024-02-15T11:00:44;14.07;;;9.57;;
75459;SDS011;64039;53.060;9.342;2024-02-15T11:03:14;13.93;;;8.88;;
75459;SDS011;64039;53.060;9.342;2024-02-15T11:05:49;13.00;;;8.27;;
75459;SDS011;64039;53.060;9.342;2024-02-15T11:08:15;13.15;;;7.97;;
75459;SDS011;64039;53.060;9.342;2024-02-15T11:10:42;10.90;;;6.53;;
75459;SDS011;64039;53.060;9.342;2024-02-15T11:13:08;9.90;;;7.53;;
75459;SDS011;64039;53.060;9.342;2024-02-15T11:18:00;10.38;;;6.28;;
75459;SDS011;64039;53.060;9.342;2024-02-15T11:23:01;11.53;;;6.37;;
75459;SDS011;64039;53.060;9.342;2024-02-15T11:25:35;11.10;;;5.95;;
75459;SDS011;64039;53.060;9.342;2024-02-15T11:30:48;8.65;;;5.10;;
75459;SDS011;64039;53.060;9.342;2024-02-15T11:33:27;7.75;;;4.90;;
75459;SDS011;64039;53.060;9.342;2024-02-15T11:36:03;7.43;;;5.28;;
75459;SDS011;64039;53.060;9.342;2024-02-15T11:38:34;7.07;;;5.00;;
75459;SDS011;64039;53.060;9.342;2024-02-15T11:41:00;9.05;;;4.75;;
75459;SDS011;64039;53.060;9.342;2024-02-15T11:46:15;10.95;;;4.57;;
75459;SDS011;64039;53.060;9.342;2024-02-15T11:48:45;9.70;;;4.38;;
75459;SDS011;64039;53.060;9.342;2024-02-15T11:51:24;6.25;;;4.07;;
75459;SDS011;64039;53.060;9.342;2024-02-15T11:54:10;9.25;;;4.43;;
75459;SDS011;64039;53.060;9.342;2024-02-15T11:56:49;10.30;;;4.18;;
75459;SDS011;64039;53.060;9.342;2024-02-15T11:59:19;7.63;;;4.50;;
75459;SDS011;64039;53.060;9.342;2024-02-15T12:01:56;6.60;;;4.03;;
75459;SDS011;64039;53.060;9.342;2024-02-15T12:04:41;7.93;;;4.10;;
75459;SDS011;64039;53.060;9.342;2024-02-15T12:07:25;4.88;;;3.67;;
75459;SDS011;64039;53.060;9.342;2024-02-15T12:10:18;7.18;;;4.15;;
75459;SDS011;64039;53.060;9.342;2024-02-15T12:13:03;6.15;;;3.67;;
75459;SDS011;64039;53.060;9.342;2024-02-15T12:15:59;6.68;;;3.70;;
75459;SDS011;64039;53.060;9.342;2024-02-15T12:18:43;8.10;;;3.80;;
75459;SDS011;64039;53.060;9.342;2024-02-15T12:21:12;9.20;;;4.35;;
75459;SDS011;64039;53.060;9.342;2024-02-15T12:23:41;7.15;;;3.83;;
75459;SDS011;64039;53.060;9.342;2024-02-15T12:26:07;6.93;;;3.80;;
75459;SDS011;64039;53.060;9.342;2024-02-15T12:28:33;6.18;;;3.22;;
75459;SDS011;64039;53.060;9.342;2024-02-15T12:31:00;9.35;;;3.83;;
75459;SDS011;64039;53.060;9.342;2024-02-15T12:33:27;8.18;;;3.90;;
75459;SDS011;64039;53.060;9.342;2024-02-15T12:35:52;8.10;;;3.40;;
75459;SDS011;64039;53.060;9.342;2024-02-15T12:38:30;6.18;;;3.13;;
75459;SDS011;64039;53.060;9.342;2024-02-15T12:40:56;7.60;;;3.38;;
75459;SDS011;64039;53.060;9.342;2024-02-15T12:43:21;9.10;;;3.00;;
75459;SDS011;64039;53.060;9.342;2024-02-15T12:45:47;4.65;;;3.25;;
75459;SDS011;64039;53.060;9.342;2024-02-15T12:48:13;7.85;;;3.63;;
75459;SDS011;64039;53.060;9.342;2024-02-15T12:50:40;7.70;;;3.17;;
75459;SDS011;64039;53.060;9.342;2024-02-15T12:53:06;6.65;;;3.38;;
75459;SDS011;64039;53.060;9.342;2024-02-15T12:55:33;7.43;;;3.17;;
75459;SDS011;64039;53.060;9.342;2024-02-15T12:58:05;6.82;;;3.20;;
75459;SDS011;64039;53.060;9.342;2024-02-15T13:00:38;5.15;;;3.28;;
75459;SDS011;64039;53.060;9.342;2024-02-15T13:03:05;6.72;;;2.97;;
75459;SDS011;64039;53.060;9.342;2024-02-15T13:05:37;6.18;;;3.42;;
75459;SDS011;64039;53.060;9.342;2024-02-15T13:08:03;4.93;;;2.90;;
75459;SDS011;64039;53.060;9.342;2024-02-15T13:10:38;6.25;;;3.20;;
75459;SDS011;64039;53.060;9.342;2024-02-15T13:13:04;4.95;;;2.80;;
75459;SDS011;64039;53.060;9.342;2024-02-15T13:15:31;5.95;;;2.72;;
75459;SDS011;64039;53.060;9.342;2024-02-15T13:17:59;8.32;;;2.85;;
75459;SDS011;64039;53.060;9.342;2024-02-15T13:20:25;7.53;;;3.00;;
75459;SDS011;64039;53.060;9.342;2024-02-15T13:22:58;6.45;;;2.97;;
75459;SDS011;64039;53.060;9.342;2024-02-15T13:25:37;6.57;;;3.00;;
75459;SDS011;64039;53.060;9.342;2024-02-15T13:28:05;8.93;;;3.60;;
75459;SDS011;64039;53.060;9.342;2024-02-15T13:30:31;6.15;;;3.00;;
75459;SDS011;64039;53.060;9.342;2024-02-15T13:32:57;5.05;;;2.60;;
75459;SDS011;64039;53.060;9.342;2024-02-15T13:35:23;6.28;;;3.15;;
75459;SDS011;64039;53.060;9.342;2024-02-15T13:37:52;6.85;;;3.30;;
75459;SDS011;64039;53.060;9.342;2024-02-15T13:40:25;6.90;;;3.10;;
75459;SDS011;64039;53.060;9.342;2024-02-15T13:42:59;8.25;;;3.05;;
75459;SDS011;64039;53.060;9.342;2024-02-15T13:45:33;5.80;;;2.58;;
75459;SDS011;64039;53.060;9.342;2024-02-15T13:48:09;6.78;;;3.10;;
75459;SDS011;64039;53.060;9.342;2024-02-15T13:50:38;4.55;;;3.13;;
75459;SDS011;64039;53.060;9.342;2024-02-15T13:53:03;8.95;;;3.25;;
75459;SDS011;64039;53.060;9.342;2024-02-15T13:55:30;9.77;;;3.13;;
75459;SDS011;64039;53.060;9.342;2024-02-15T13:57:56;4.93;;;2.60;;
75459;SDS011;64039;53.060;9.342;2024-02-15T14:00:22;4.88;;;2.83;;
75459;SDS011;64039;53.060;9.342;2024-02-15T14:02:51;6.43;;;2.88;;
75459;SDS011;64039;53.060;9.342;2024-02-15T14:05:18;5.72;;;3.25;;
75459;SDS011;64039;53.060;9.342;2024-02-15T14:07:47;3.97;;;2.60;;
75459;SDS011;64039;53.060;9.342;2024-02-15T14:10:20;7.10;;;3.00;;
75459;SDS011;64039;53.060;9.342;2024-02-15T14:12:49;4.03;;;2.70;;
75459;SDS011;64039;53.060;9.342;2024-02-15T14:15:17;5.65;;;2.80;;
75459;SDS011;64039;53.060;9.342;2024-02-15T14:17:44;5.07;;;2.70;;
75459;SDS011;64039;53.060;9.342;2024-02-15T14:20:10;4.90;;;2.70;;
75459;SDS011;64039;53.060;9.342;2024-02-15T14:22:43;6.20;;;2.67;;
75459;SDS011;64039;53.060;9.342;2024-02-15T14:25:10;7.20;;;2.80;;
75459;SDS011;64039;53.060;9.342;2024-02-15T14:27:37;5.93;;;3.03;;
75459;SDS011;64039;53.060;9.342;2024-02-15T14:30:04;4.03;;;2.67;;
75459;SDS011;64039;53.060;9.342;2024-02-15T14:32:49;4.50;;;3.00;;
75459;SDS011;64039;53.060;9.342;2024-02-15T14:35:33;4.80;;;2.60;;
75459;SDS011;64039;53.060;9.342;2024-02-15T14:38:03;4.15;;;2.53;;
75459;SDS011;64039;53.060;9.342;2024-02-15T14:40:40;5.22;;;3.00;;
75459;SDS011;64039;53.060;9.342;2024-02-15T14:43:08;7.65;;;2.90;;
75459;SDS011;64039;53.060;9.342;2024-02-15T14:45:38;4.40;;;2.85;;
75459;SDS011;64039;53.060;9.342;2024-02-15T14:48:09;4.60;;;2.97;;
75459;SDS011;64039;53.060;9.342;2024-02-15T14:50:38;7.10;;;3.15;;
75459;SDS011;64039;53.060;9.342;2024-02-15T14:53:07;5.47;;;2.88;;
75459;SDS011;64039;53.060;9.342;2024-02-15T14:55:33;6.40;;;3.53;;